Ora Direzione Vento Velocita' Vento Media Vento Raffica Max. Temperatura Wind Chill Pioggia Pressione
23:54:55.0103 °(ESE)3.2 Kts4.5 Kts11.5 Kts14.8 °C14.8 °C0.0 mm1025.0 Hpa
23:33:37.0103 °(ESE)1.4 Kts1.3 Kts11.5 Kts14.4 °C14.4 °C0.0 mm1025.0 Hpa
23:14:31.043 °(NE)2.2 Kts2.4 Kts11.5 Kts14.0 °C14.0 °C0.0 mm1025.0 Hpa
22:53:06.042 °(NE)2.1 Kts2.1 Kts11.5 Kts13.2 °C13.2 °C0.0 mm1025.0 Hpa
22:33:59.029 °(NNE)2.3 Kts2.4 Kts11.5 Kts13.3 °C13.3 °C0.0 mm1025.0 Hpa
22:14:43.029 °(NNE)3.5 Kts3.9 Kts11.5 Kts13.6 °C13.6 °C0.0 mm1025.0 Hpa
21:53:12.0249 °(WSW)0.6 Kts0.8 Kts11.5 Kts14.9 °C14.8 °C0.0 mm1025.0 Hpa
21:33:56.0359 °(N)0.3 Kts0.3 Kts11.5 Kts14.3 °C14.3 °C0.0 mm1025.0 Hpa
21:14:52.01 °(N)2.1 Kts2.4 Kts11.5 Kts14.6 °C14.6 °C0.0 mm1025.0 Hpa
20:53:33.028 °(NNE)2.2 Kts2.1 Kts11.5 Kts14.2 °C14.2 °C0.0 mm1025.0 Hpa
20:34:23.011 °(N)2.8 Kts3.9 Kts11.5 Kts14.6 °C14.6 °C0.0 mm1025.0 Hpa
20:13:01.0343 °(NNW)2.2 Kts2.4 Kts11.5 Kts14.8 °C14.8 °C0.0 mm1025.0 Hpa
19:53:31.0342 °(NNW)2.0 Kts2.1 Kts11.5 Kts15.4 °C15.4 °C0.0 mm1025.0 Hpa
19:34:21.0343 °(NNW)2.0 Kts1.3 Kts11.5 Kts15.2 °C15.2 °C0.0 mm1025.0 Hpa
19:13:06.0325 °(NW)2.2 Kts2.4 Kts11.5 Kts16.7 °C16.7 °C0.0 mm1025.0 Hpa
18:54:00.0285 °(WNW)2.2 Kts2.6 Kts11.5 Kts18.4 °C18.4 °C0.0 mm1025.0 Hpa
18:34:50.0278 °(W)6.8 Kts7.3 Kts11.5 Kts18.5 °C18.5 °C0.0 mm1025.0 Hpa
18:13:40.0279 °(W)7.9 Kts5.8 Kts11.5 Kts18.6 °C18.6 °C0.0 mm1025.0 Hpa
17:54:30.0257 °(WSW)8.6 Kts11.0 Kts11.5 Kts18.8 °C18.7 °C0.0 mm1024.0 Hpa
17:33:22.0256 °(WSW)7.8 Kts9.2 Kts11.5 Kts18.8 °C18.8 °C0.0 mm1024.0 Hpa